createdAt,value
2022-11-02T00:01:38.721Z,100196.56
2022-11-02T00:04:08.446Z,100199.56
2022-11-02T00:06:38.081Z,100197.25
2022-11-02T00:09:07.934Z,100189.75
2022-11-02T00:11:39.347Z,100188.53
2022-11-02T00:14:09.338Z,100195.81
2022-11-02T00:16:41.023Z,100184.28
2022-11-02T00:19:10.699Z,100191.59
2022-11-02T00:21:41.777Z,100189.75
2022-11-02T00:24:12.908Z,100186.34
2022-11-02T00:26:43.735Z,100187.06
2022-11-02T00:29:13.249Z,100187.78
2022-11-02T00:31:42.792Z,100182.09
2022-11-02T00:34:12.402Z,100179.81
2022-11-02T00:36:41.942Z,100182.47
2022-11-02T00:39:11.469Z,100178.47
2022-11-02T00:41:43.686Z,100173.50
2022-11-02T00:44:13.530Z,100168.03
2022-11-02T00:46:43.080Z,100174.81
2022-11-02T00:49:12.515Z,100172.28
2022-11-02T00:51:44.340Z,100180.88
2022-11-02T00:54:13.911Z,100177.72
2022-11-02T00:56:44.807Z,100172.38
2022-11-02T00:59:15.314Z,100171.53
2022-11-02T01:01:47.447Z,100174.38
2022-11-02T01:04:17.515Z,100163.09
2022-11-02T01:06:47.420Z,100160.91
2022-11-02T01:09:17.366Z,100159.25
2022-11-02T01:11:51.251Z,100156.06
2022-11-02T01:14:21.233Z,100160.44
2022-11-02T01:16:51.692Z,100159.94
2022-11-02T01:19:21.463Z,100162.50
2022-11-02T01:21:50.947Z,100158.88
2022-11-02T01:24:20.584Z,100162.47
2022-11-02T01:26:52.878Z,100162.09
2022-11-02T01:29:22.638Z,100157.47
2022-11-02T01:31:53.691Z,100154.69
2022-11-02T01:34:23.178Z,100149.59
2022-11-02T01:36:52.664Z,100150.94
2022-11-02T01:39:22.218Z,100155.03
2022-11-02T01:41:53.852Z,100156.13
2022-11-02T01:44:30.842Z,100154.31
2022-11-02T01:47:02.944Z,100151.75
2022-11-02T01:49:34.137Z,100157.56
2022-11-02T01:52:07.568Z,100155.53
2022-11-02T01:54:38.891Z,100152.47
2022-11-02T01:57:11.077Z,100156.22
2022-11-02T01:59:43.434Z,100155.34
2022-11-02T02:02:16.930Z,100153.31
2022-11-02T02:04:50.472Z,100155.22
2022-11-02T02:07:20.527Z,100147.63
2022-11-02T02:09:51.396Z,100157.09
2022-11-02T02:12:24.241Z,100152.47
2022-11-02T02:14:54.606Z,100159.28
2022-11-02T02:17:32.208Z,100152.47
2022-11-02T02:20:06.312Z,100147.63
2022-11-02T02:22:57.078Z,100150.00
2022-11-02T02:25:34.660Z,100144.84
2022-11-02T02:28:19.645Z,100152.34
2022-11-02T02:30:51.428Z,100149.34
2022-11-02T02:33:25.720Z,100151.41
2022-11-02T02:35:58.283Z,100150.09
2022-11-02T02:38:30.260Z,100155.91
2022-11-02T02:41:05.552Z,100153.69
2022-11-02T02:43:39.820Z,100149.81
2022-11-02T02:46:12.063Z,100147.84
2022-11-02T02:48:42.956Z,100152.19
2022-11-02T02:51:14.017Z,100148.34
2022-11-02T02:53:46.285Z,100151.00
2022-11-02T02:56:17.717Z,100155.22
2022-11-02T02:58:54.320Z,100153.44
2022-11-02T03:01:24.700Z,100146.28
2022-11-02T03:03:54.569Z,100137.19
2022-11-02T03:06:27.607Z,100142.59
2022-11-02T03:09:03.988Z,100146.84
2022-11-02T03:11:34.947Z,100138.97
2022-11-02T03:14:12.980Z,100148.44
2022-11-02T03:16:54.196Z,100146.63
2022-11-02T03:19:26.045Z,100143.13
2022-11-02T03:22:01.028Z,100139.34
2022-11-02T03:24:34.728Z,100135.06
2022-11-02T03:27:08.647Z,100138.09
2022-11-02T03:29:43.755Z,100140.91
2022-11-02T03:32:16.604Z,100134.31
2022-11-02T03:34:49.475Z,100142.66
2022-11-02T03:37:20.005Z,100143.59
2022-11-02T03:39:50.705Z,100144.31
2022-11-02T03:42:22.212Z,100139.28
2022-11-02T03:44:56.552Z,100144.38
2022-11-02T03:47:30.975Z,100147.28
2022-11-02T03:50:02.196Z,100141.06
2022-11-02T03:52:33.489Z,100136.09
2022-11-02T03:55:06.435Z,100134.75
2022-11-02T03:57:40.812Z,100139.09
2022-11-02T04:00:13.099Z,100136.03
2022-11-02T04:02:44.717Z,100130.94
2022-11-02T04:05:14.282Z,100138.31
2022-11-02T04:08:02.983Z,100133.66
2022-11-02T04:10:32.851Z,100131.22
2022-11-02T04:13:20.548Z,100131.00
2022-11-02T04:15:52.547Z,100133.44
2022-11-02T04:18:39.461Z,100126.25
2022-11-02T04:21:09.031Z,100125.19
2022-11-02T04:23:55.880Z,100126.25
2022-11-02T04:26:25.413Z,100126.31
2022-11-02T04:28:54.943Z,100119.75
2022-11-02T04:31:26.027Z,100122.72
2022-11-02T04:33:54.474Z,100123.81
2022-11-02T04:36:24.143Z,100117.13
2022-11-02T04:39:02.713Z,100115.19
2022-11-02T04:41:44.230Z,100112.16
2022-11-02T04:44:15.873Z,100111.56
2022-11-02T04:46:46.895Z,100116.03
2022-11-02T04:49:17.304Z,100113.47
2022-11-02T04:51:49.754Z,100116.38
2022-11-02T04:54:19.837Z,100124.00
2022-11-02T04:56:50.312Z,100126.66
2022-11-02T04:59:19.811Z,100128.97
2022-11-02T05:01:50.875Z,100124.91
2022-11-02T05:04:20.720Z,100120.28
2022-11-02T05:06:50.176Z,100122.41
2022-11-02T05:09:20.122Z,100130.38
2022-11-02T05:11:50.627Z,100127.19
2022-11-02T05:14:20.516Z,100131.28
2022-11-02T05:16:51.940Z,100133.50
2022-11-02T05:19:21.731Z,100139.06
2022-11-02T05:21:51.381Z,100139.91
2022-11-02T05:24:21.156Z,100147.56
2022-11-02T05:26:53.822Z,100143.00
2022-11-02T05:29:25.089Z,100153.13
2022-11-02T05:31:56.111Z,100142.41
2022-11-02T05:34:26.608Z,100152.00
2022-11-02T05:36:56.186Z,100155.59
2022-11-02T05:39:25.705Z,100159.06
2022-11-02T05:41:55.245Z,100161.25
2022-11-02T05:44:24.900Z,100154.03
2022-11-02T05:46:54.456Z,100157.03
2022-11-02T05:49:25.649Z,100158.16
2022-11-02T05:51:56.505Z,100160.53
2022-11-02T05:54:26.060Z,100160.84
2022-11-02T05:56:55.864Z,100162.28
2022-11-02T05:59:25.366Z,100166.53
2022-11-02T06:01:55.232Z,100165.41
2022-11-02T06:04:26.389Z,100162.91
2022-11-02T06:06:55.849Z,100156.00
2022-11-02T06:09:25.587Z,100158.22
2022-11-02T06:11:56.825Z,100160.28
2022-11-02T06:14:26.393Z,100153.38
2022-11-02T06:16:56.196Z,100154.13
2022-11-02T06:19:27.136Z,100156.31
2022-11-02T06:21:56.702Z,100152.56
2022-11-02T06:24:27.663Z,100158.16
2022-11-02T06:26:57.156Z,100156.72
2022-11-02T06:29:26.613Z,100158.94
2022-11-02T06:31:56.310Z,100161.13
2022-11-02T06:34:27.613Z,100157.38
2022-11-02T06:36:57.130Z,100152.50
2022-11-02T06:39:26.729Z,100154.44
2022-11-02T06:41:56.543Z,100148.75
2022-11-02T06:44:26.107Z,100147.41
2022-11-02T06:46:55.760Z,100150.66
2022-11-02T06:49:25.363Z,100151.50
2022-11-02T06:51:56.217Z,100156.81
2022-11-02T06:54:25.765Z,100149.88
2022-11-02T06:56:55.261Z,100147.44
2022-11-02T06:59:24.816Z,100150.19
2022-11-02T07:01:55.086Z,100148.72
2022-11-02T07:04:25.243Z,100147.22
2022-11-02T07:06:56.239Z,100142.94
2022-11-02T07:09:25.957Z,100142.19
2022-11-02T07:11:56.086Z,100144.22
2022-11-02T07:14:26.027Z,100136.41
2022-11-02T07:16:56.346Z,100131.25
2022-11-02T07:19:25.906Z,100136.69
2022-11-02T07:21:56.902Z,100130.44
2022-11-02T07:24:26.658Z,100131.06
2022-11-02T07:26:56.237Z,100135.22
2022-11-02T07:29:25.971Z,100135.72
2022-11-02T07:31:55.836Z,100127.56
2022-11-02T07:34:26.153Z,100118.63
2022-11-02T07:36:57.742Z,100118.50
2022-11-02T07:39:27.544Z,100115.59
2022-11-02T07:41:57.199Z,100117.28
2022-11-02T07:44:26.894Z,100112.38
2022-11-02T07:46:56.554Z,100111.16
2022-11-02T07:49:26.321Z,100110.00
2022-11-02T07:52:00.617Z,100115.53
2022-11-02T07:54:30.188Z,100104.66
2022-11-02T07:57:01.350Z,100094.47
2022-11-02T07:59:30.961Z,100096.69
2022-11-02T08:02:00.550Z,100091.41
2022-11-02T08:04:30.178Z,100090.94
2022-11-02T08:07:01.193Z,100091.50
2022-11-02T08:09:30.735Z,100084.38
2022-11-02T08:12:00.822Z,100080.53
2022-11-02T08:14:30.694Z,100082.84
2022-11-02T08:17:01.217Z,100075.22
2022-11-02T08:19:30.719Z,100077.97
2022-11-02T08:22:01.633Z,100073.94
2022-11-02T08:24:31.197Z,100065.41
2022-11-02T08:27:00.896Z,100070.31
2022-11-02T08:29:30.601Z,100071.69
2022-11-02T08:32:00.101Z,100070.22
2022-11-02T08:34:29.842Z,100066.00
2022-11-02T08:36:59.342Z,100062.84
2022-11-02T08:39:30.256Z,100059.53
2022-11-02T08:41:59.761Z,100065.06
2022-11-02T08:44:29.433Z,100058.50
2022-11-02T08:47:00.555Z,100059.38
2022-11-02T08:49:31.713Z,100059.19
2022-11-02T08:52:01.236Z,100055.81
2022-11-02T08:54:32.123Z,100047.78
2022-11-02T08:57:01.624Z,100044.63
2022-11-02T08:59:31.193Z,100040.66
2022-11-02T09:02:00.889Z,100032.94
2022-11-02T09:04:30.548Z,100038.88
2022-11-02T09:07:00.213Z,100036.84
2022-11-02T09:09:29.760Z,100031.81
2022-11-02T09:12:04.851Z,100024.66
2022-11-02T09:14:35.250Z,100019.28
2022-11-02T09:17:05.547Z,100017.97
2022-11-02T09:19:35.119Z,100015.94
2022-11-02T09:22:05.830Z,100015.31
2022-11-02T09:24:35.702Z,100018.34
2022-11-02T09:27:07.244Z,100008.75
2022-11-02T09:29:37.001Z,99998.50
2022-11-02T09:32:06.813Z,100000.38
2022-11-02T09:37:40.391Z,99989.47
2022-11-02T09:40:11.076Z,99981.53
2022-11-02T09:42:45.578Z,99980.00
2022-11-02T09:45:17.745Z,99981.22
2022-11-02T09:48:24.948Z,99976.13
2022-11-02T09:50:43.197Z,99973.28
2022-11-02T09:53:16.369Z,99968.53
2022-11-02T09:55:50.340Z,99961.91
2022-11-02T09:58:24.187Z,99955.16
2022-11-02T10:01:01.793Z,99946.53
2022-11-02T10:03:41.201Z,99945.53
2022-11-02T10:06:14.111Z,99946.03
2022-11-02T10:08:48.191Z,99940.25
2022-11-02T10:11:26.098Z,99929.31
2022-11-02T10:14:00.118Z,99930.66
2022-11-02T10:16:36.021Z,99929.09
2022-11-02T10:19:07.824Z,99929.09
2022-11-02T10:21:39.373Z,99919.66
2022-11-02T10:24:12.673Z,99923.25
2022-11-02T10:26:43.605Z,99924.44
2022-11-02T10:29:17.284Z,99911.16
2022-11-02T10:31:48.586Z,99912.44
2022-11-02T10:34:21.938Z,99909.16
2022-11-02T10:36:57.166Z,99898.53
2022-11-02T10:39:30.712Z,99892.16
2022-11-02T10:42:10.740Z,99894.25
2022-11-02T10:45:01.569Z,99888.72
2022-11-02T10:47:35.536Z,99883.91
2022-11-02T10:50:18.368Z,99877.88
2022-11-02T10:52:48.395Z,99880.03
2022-11-02T10:55:24.525Z,99875.34
2022-11-02T10:57:59.749Z,99869.50
2022-11-02T11:00:31.303Z,99865.38
2022-11-02T11:03:08.512Z,99859.31
2022-11-02T11:05:39.843Z,99851.72
2022-11-02T11:08:27.379Z,99855.16
2022-11-02T11:10:56.935Z,99854.97
2022-11-02T11:16:19.499Z,99842.47
2022-11-02T11:21:42.663Z,99837.91
2022-11-02T11:24:21.958Z,99840.91
2022-11-02T11:27:09.278Z,99834.91
2022-11-02T11:29:39.905Z,99831.34
2022-11-02T11:32:14.936Z,99818.56
2022-11-02T11:34:50.799Z,99819.13
2022-11-02T11:37:20.662Z,99818.69
2022-11-02T11:39:54.920Z,99810.28
2022-11-02T11:42:26.494Z,99812.88
2022-11-02T11:44:58.789Z,99816.41
2022-11-02T11:47:33.611Z,99806.50
2022-11-02T11:50:17.984Z,99810.81
2022-11-02T11:53:09.379Z,99801.44
2022-11-02T11:55:46.830Z,99802.84
2022-11-02T11:58:17.820Z,99795.25
2022-11-02T12:00:47.419Z,99803.72
2022-11-02T12:03:25.211Z,99790.50
2022-11-02T12:06:03.404Z,99786.06
2022-11-02T12:08:39.121Z,99783.28
2022-11-02T12:11:18.959Z,99778.34
2022-11-02T12:13:56.808Z,99770.03
2022-11-02T12:16:31.056Z,99774.94
2022-11-02T12:19:09.361Z,99773.50
2022-11-02T12:21:48.027Z,99769.00
2022-11-02T12:24:23.479Z,99772.56
2022-11-02T12:27:00.830Z,99775.03
2022-11-02T12:29:49.860Z,99758.56
2022-11-02T12:32:28.067Z,99760.38
2022-11-02T12:38:10.973Z,99757.97
2022-11-02T12:40:46.511Z,99755.19
2022-11-02T12:43:24.918Z,99757.78
2022-11-02T12:45:58.684Z,99754.06
2022-11-02T12:48:34.868Z,99751.94
2022-11-02T12:51:09.460Z,99749.34
2022-11-02T12:53:45.249Z,99748.72
2022-11-02T12:56:18.425Z,99740.44
2022-11-02T12:58:48.330Z,99736.78
2022-11-02T13:01:22.391Z,99743.59
2022-11-02T13:03:54.395Z,99739.81
2022-11-02T13:06:31.349Z,99733.41
2022-11-02T13:09:05.531Z,99733.03
2022-11-02T13:11:38.223Z,99725.56
2022-11-02T13:14:15.593Z,99721.16
2022-11-02T13:16:48.797Z,99719.09
2022-11-02T13:19:21.041Z,99719.25
2022-11-02T13:21:55.098Z,99720.31
2022-11-02T13:24:32.305Z,99721.25
2022-11-02T13:27:14.326Z,99717.34
2022-11-02T13:29:46.791Z,99704.84
2022-11-02T13:32:18.981Z,99719.41
2022-11-02T13:34:50.065Z,99711.63
2022-11-02T13:37:23.565Z,99714.91
2022-11-02T13:39:56.775Z,99711.63
2022-11-02T13:42:33.791Z,99714.75
2022-11-02T13:45:25.949Z,99716.59
2022-11-02T13:48:12.189Z,99711.28
2022-11-02T13:50:44.095Z,99704.94
2022-11-02T13:53:18.248Z,99708.88
2022-11-02T13:55:54.348Z,99709.19
2022-11-02T13:58:26.205Z,99703.03
2022-11-02T14:00:59.859Z,99704.81
2022-11-02T14:03:30.986Z,99707.78
2022-11-02T14:06:01.610Z,99700.47
2022-11-02T14:08:35.635Z,99698.03
2022-11-02T14:11:20.077Z,99700.34
2022-11-02T14:14:23.348Z,99700.91
2022-11-02T14:17:12.121Z,99698.94
2022-11-02T14:20:04.488Z,99706.09
2022-11-02T14:22:34.473Z,99708.66
2022-11-02T14:25:17.959Z,99704.66
2022-11-02T14:27:47.584Z,99700.84
2022-11-02T14:30:50.315Z,99701.38
2022-11-02T14:33:37.460Z,99702.94
2022-11-02T14:36:10.979Z,99710.19
2022-11-02T14:38:58.070Z,99715.59
2022-11-02T14:41:37.388Z,99718.06
2022-11-02T14:44:37.101Z,99709.47
2022-11-02T14:47:08.526Z,99713.72
2022-11-02T14:49:47.608Z,99712.31
2022-11-02T14:52:23.545Z,99699.13
2022-11-02T14:54:57.139Z,99707.44
2022-11-02T14:57:29.659Z,99707.81
2022-11-02T15:00:01.051Z,99716.16
2022-11-02T15:02:37.225Z,99711.66
2022-11-02T15:05:22.940Z,99720.09
2022-11-02T15:07:55.511Z,99722.13
2022-11-02T15:10:39.056Z,99720.13
2022-11-02T15:13:42.604Z,99718.63
2022-11-02T15:16:16.830Z,99723.53
2022-11-02T15:18:48.282Z,99723.19
2022-11-02T15:21:25.960Z,99733.97
2022-11-02T15:24:04.940Z,99730.84
2022-11-02T15:26:41.967Z,99733.75
2022-11-02T15:29:16.798Z,99728.88
2022-11-02T15:31:53.079Z,99737.50
2022-11-02T15:34:26.583Z,99736.16
2022-11-02T15:36:58.523Z,99736.50
2022-11-02T15:39:28.547Z,99738.88
2022-11-02T15:42:02.882Z,99748.00
2022-11-02T15:44:39.952Z,99753.69
2022-11-02T15:47:14.379Z,99746.13
2022-11-02T15:49:59.416Z,99754.28
2022-11-02T15:52:50.728Z,99763.50
2022-11-02T15:55:34.438Z,99761.16
2022-11-02T15:58:08.940Z,99773.94
2022-11-02T16:00:38.637Z,99765.84
2022-11-02T16:03:08.810Z,99774.81
2022-11-02T16:05:43.678Z,99771.28
2022-11-02T16:08:24.720Z,99779.00
2022-11-02T16:11:04.393Z,99784.75
2022-11-02T16:13:48.721Z,99790.13
2022-11-02T16:16:26.605Z,99787.97
2022-11-02T16:18:57.402Z,99792.00
2022-11-02T16:21:27.364Z,99801.25
2022-11-02T16:23:59.454Z,99804.09
2022-11-02T16:26:30.308Z,99799.72
2022-11-02T16:29:00.914Z,99800.41
2022-11-02T16:31:32.073Z,99804.78
2022-11-02T16:34:03.027Z,99804.63
2022-11-02T16:36:33.535Z,99804.94
2022-11-02T16:39:05.995Z,99805.44
2022-11-02T16:41:36.557Z,99810.50
2022-11-02T16:44:09.728Z,99806.59
2022-11-02T16:46:42.151Z,99823.09
2022-11-02T16:49:16.477Z,99817.00
2022-11-02T16:51:51.570Z,99819.69
2022-11-02T16:54:39.726Z,99827.44
2022-11-02T16:57:14.144Z,99823.72
2022-11-02T16:59:55.065Z,99832.13
2022-11-02T17:02:30.637Z,99842.03
2022-11-02T17:05:05.773Z,99837.97
2022-11-02T17:07:40.048Z,99847.75
2022-11-02T17:10:20.322Z,99852.81
2022-11-02T17:12:51.716Z,99853.84
2022-11-02T17:15:24.779Z,99851.97
2022-11-02T17:18:16.529Z,99855.16
2022-11-02T17:20:46.522Z,99857.47
2022-11-02T17:23:31.687Z,99854.94
2022-11-02T17:26:19.863Z,99859.78
2022-11-02T17:28:52.142Z,99852.19
2022-11-02T17:31:24.807Z,99854.53
2022-11-02T17:33:54.823Z,99855.19
2022-11-02T17:36:26.973Z,99852.50
2022-11-02T17:38:56.735Z,99845.59
2022-11-02T17:41:48.642Z,99845.38
2022-11-02T17:44:20.020Z,99845.84
2022-11-02T17:46:49.813Z,99847.88
2022-11-02T17:49:19.521Z,99849.19
2022-11-02T17:51:49.093Z,99854.03
2022-11-02T17:54:19.115Z,99848.81
2022-11-02T17:56:52.289Z,99859.91
2022-11-02T17:59:23.493Z,99856.22
2022-11-02T18:01:53.471Z,99850.13
2022-11-02T18:04:23.188Z,99848.78
2022-11-02T18:06:52.965Z,99850.63
2022-11-02T18:09:29.039Z,99862.41
2022-11-02T18:11:59.395Z,99858.34
2022-11-02T18:14:31.123Z,99853.94
2022-11-02T18:17:00.664Z,99852.78
2022-11-02T18:19:32.717Z,99861.84
2022-11-02T18:22:02.465Z,99865.84
2022-11-02T18:24:32.308Z,99871.03
2022-11-02T18:27:01.886Z,99862.25
2022-11-02T18:29:32.841Z,99860.72
2022-11-02T18:32:02.334Z,99864.59
2022-11-02T18:34:31.831Z,99868.59
2022-11-02T18:37:01.366Z,99864.28
2022-11-02T18:39:30.821Z,99875.19
2022-11-02T18:42:00.712Z,99866.78
2022-11-02T18:44:30.457Z,99873.97
2022-11-02T18:47:01.848Z,99877.53
2022-11-02T18:49:31.593Z,99875.50
2022-11-02T18:52:01.151Z,99884.56
2022-11-02T18:54:30.977Z,99880.75
2022-11-02T18:57:01.131Z,99876.09
2022-11-02T18:59:30.735Z,99879.66
2022-11-02T19:02:01.677Z,99885.19
2022-11-02T19:04:31.523Z,99888.34
2022-11-02T19:07:18.329Z,99898.69
2022-11-02T19:09:48.168Z,99905.34
2022-11-02T19:12:19.719Z,99905.28
2022-11-02T19:14:51.479Z,99904.72
2022-11-02T19:17:24.003Z,99902.88
2022-11-02T19:19:53.852Z,99912.09
2022-11-02T19:22:24.412Z,99910.91
2022-11-02T19:24:54.208Z,99918.28
2022-11-02T19:27:25.283Z,99911.53
2022-11-02T19:29:54.806Z,99915.81
2022-11-02T19:32:25.796Z,99916.81
2022-11-02T19:34:55.328Z,99911.59
2022-11-02T19:37:25.967Z,99919.09
2022-11-02T19:39:55.644Z,99918.44
2022-11-02T19:42:25.403Z,99921.00
2022-11-02T19:44:55.318Z,99920.06
2022-11-02T19:47:27.684Z,99913.00
2022-11-02T19:49:57.445Z,99912.75
2022-11-02T19:52:27.002Z,99921.78
2022-11-02T19:54:56.534Z,99921.94
2022-11-02T19:57:29.346Z,99915.72
2022-11-02T20:00:02.599Z,99920.03
2022-11-02T20:02:36.957Z,99919.16
2022-11-02T20:05:06.893Z,99925.06
2022-11-02T20:07:36.655Z,99925.34
2022-11-02T20:10:06.752Z,99921.47
2022-11-02T20:12:37.125Z,99921.47
2022-11-02T20:15:10.822Z,99924.28
2022-11-02T20:18:05.486Z,99923.72
2022-11-02T20:20:32.107Z,99927.28
2022-11-02T20:23:02.501Z,99923.88
2022-11-02T20:25:32.231Z,99926.31
2022-11-02T20:28:01.822Z,99919.53
2022-11-02T20:30:31.572Z,99921.63
2022-11-02T20:33:02.639Z,99923.63
2022-11-02T20:35:32.767Z,99925.88
2022-11-02T20:38:02.977Z,99920.66
2022-11-02T20:40:36.353Z,99921.81
2022-11-02T20:43:08.509Z,99919.84
2022-11-02T20:45:38.019Z,99916.84
2022-11-02T20:48:09.328Z,99924.06
2022-11-02T20:50:39.523Z,99917.88
2022-11-02T20:53:09.073Z,99923.50
2022-11-02T20:55:38.646Z,99926.59
2022-11-02T20:58:08.408Z,99921.69
2022-11-02T21:00:38.123Z,99924.66
2022-11-02T21:03:09.368Z,99927.63
2022-11-02T21:05:38.900Z,99930.59
2022-11-02T21:08:08.758Z,99927.72
2022-11-02T21:10:38.661Z,99937.91
2022-11-02T21:13:40.869Z,99933.97
2022-11-02T21:16:12.131Z,99928.34
2022-11-02T21:18:43.398Z,99931.03
2022-11-02T21:21:13.712Z,99935.38
2022-11-02T21:23:43.255Z,99931.72
2022-11-02T21:26:14.062Z,99925.50
2022-11-02T21:28:44.785Z,99930.88
2022-11-02T21:31:16.658Z,99925.22
2022-11-02T21:33:48.370Z,99918.75
2022-11-02T21:36:18.930Z,99923.84
2022-11-02T21:38:49.475Z,99925.94
2022-11-02T21:41:21.074Z,99921.00
2022-11-02T21:43:52.125Z,99925.63
2022-11-02T21:46:21.840Z,99926.91
2022-11-02T21:48:54.035Z,99922.84
2022-11-02T21:51:23.878Z,99918.47
2022-11-02T21:53:56.553Z,99917.31
2022-11-02T21:56:27.114Z,99911.69
2022-11-02T21:58:56.825Z,99928.03
2022-11-02T22:01:44.723Z,99916.06
2022-11-02T22:04:19.552Z,99922.66
2022-11-02T22:06:49.101Z,99926.31
2022-11-02T22:09:19.223Z,99925.75
2022-11-02T22:12:10.379Z,99929.28
2022-11-02T22:14:40.813Z,99920.97
2022-11-02T22:17:16.182Z,99922.91
2022-11-02T22:19:53.189Z,99923.78
2022-11-02T22:22:23.949Z,99928.41
2022-11-02T22:24:54.183Z,99919.22
2022-11-02T22:27:23.712Z,99928.97
2022-11-02T22:29:53.278Z,99921.78
2022-11-02T22:32:22.792Z,99926.28
2022-11-02T22:34:53.798Z,99920.63
2022-11-02T22:37:40.754Z,99924.69
2022-11-02T22:40:10.829Z,99930.59
2022-11-02T22:42:42.604Z,99926.53
2022-11-02T22:45:12.392Z,99919.06
2022-11-02T22:47:41.901Z,99932.16
2022-11-02T22:50:13.084Z,99933.00
2022-11-02T22:52:43.829Z,99922.16
2022-11-02T22:55:13.363Z,99927.22
2022-11-02T22:57:43.020Z,99931.13
2022-11-02T23:00:13.645Z,99927.09
2022-11-02T23:02:43.200Z,99927.34
2022-11-02T23:05:14.778Z,99932.75
2022-11-02T23:07:44.272Z,99937.84
2022-11-02T23:10:36.776Z,99943.81
2022-11-02T23:13:06.205Z,99938.31
2022-11-02T23:15:36.820Z,99941.69
2022-11-02T23:18:06.465Z,99937.19
2022-11-02T23:20:36.414Z,99937.78
2022-11-02T23:23:23.004Z,99939.09
2022-11-02T23:25:56.447Z,99946.84
2022-11-02T23:28:43.147Z,99944.09
2022-11-02T23:31:29.824Z,99941.84
2022-11-02T23:33:59.292Z,99935.91
2022-11-02T23:36:29.175Z,99937.41
2022-11-02T23:39:16.316Z,99943.19
2022-11-02T23:41:45.798Z,99955.13
2022-11-02T23:44:15.431Z,99950.00
2022-11-02T23:46:45.932Z,99951.94
2022-11-02T23:49:16.987Z,99953.47
2022-11-02T23:52:05.716Z,99959.66
2022-11-02T23:54:52.550Z,99957.66
2022-11-02T23:57:22.568Z,99959.59
2022-11-02T23:59:52.266Z,99959.72
